Time;durP1;ratioP1;P1;durP2;ratioP2;P2;SDS_P1;SDS_P2;PMS_P1;PMS_P2;Temp;Humidity;BMP_temperature;BMP_pressure;BME280_temperature;BME280_humidity;BME280_pressure;Samples;Min_cycle;Max_cycle;Signal;HPM_P1;HPM_P2
2022/02/22 00:00:53;;;;;;;33.03;5.53;;;5.40;99.90;;;;;;5059141;28;20493;-48
2022/02/22 00:03:18;;;;;;;37.60;5.88;;;5.30;99.90;;;;;;5073903;28;20052;-48
2022/02/22 00:05:44;;;;;;;41.42;6.78;;;5.30;99.90;;;;;;5059020;28;20052;-49
2022/02/22 00:08:09;;;;;;;38.63;5.95;;;5.30;99.90;;;;;;5053731;28;20040;-49
2022/02/22 00:10:35;;;;;;;34.17;5.20;;;5.20;99.90;;;;;;5065287;28;20404;-48
2022/02/22 00:13:01;;;;;;;37.28;5.28;;;5.20;99.90;;;;;;5054155;28;20036;-48
2022/02/22 00:15:27;;;;;;;38.80;5.90;;;5.20;99.90;;;;;;5052444;28;20127;-49
2022/02/22 00:17:53;;;;;;;43.97;6.43;;;5.10;99.90;;;;;;5053750;28;20033;-48
2022/02/22 00:20:18;;;;;;;40.35;5.38;;;5.20;99.90;;;;;;5053766;28;20036;-48
2022/02/22 00:22:44;;;;;;;37.83;6.03;;;5.20;99.90;;;;;;5057330;28;20045;-51
2022/02/22 00:25:12;;;;;;;36.88;5.85;;;5.20;99.90;;;;;;5053589;28;20037;-50
2022/02/22 00:27:42;;;;;;;40.97;6.15;;;5.30;99.90;;;;;;5052223;28;20123;-51
2022/02/22 00:30:10;;;;;;;40.95;6.60;;;5.30;99.90;;;;;;5064923;28;20036;-49
2022/02/22 00:32:39;;;;;;;36.17;5.30;;;5.30;99.90;;;;;;5056322;28;20037;-51
2022/02/22 00:35:07;;;;;;;33.47;5.20;;;5.40;99.90;;;;;;5053754;28;20048;-48
2022/02/22 00:37:32;;;;;;;28.88;5.00;;;5.50;99.90;;;;;;5057250;28;20405;-48
2022/02/22 00:39:58;;;;;;;25.52;4.15;;;5.60;99.90;;;;;;5053166;28;20041;-51
2022/02/22 00:42:25;;;;;;;26.17;4.55;;;5.60;99.90;;;;;;5053569;28;20083;-48
2022/02/22 00:44:51;;;;;;;22.40;4.18;;;5.60;99.90;;;;;;5053571;28;20059;-48
2022/02/22 00:47:17;;;;;;;29.05;5.63;;;5.60;99.90;;;;;;5051863;28;20041;-48
2022/02/22 00:49:42;;;;;;;25.95;5.32;;;5.50;99.90;;;;;;5051821;28;20033;-49
2022/02/22 00:52:08;;;;;;;23.02;4.82;;;5.50;99.90;;;;;;5052758;28;20041;-48
2022/02/22 00:54:33;;;;;;;26.58;4.22;;;5.50;99.90;;;;;;5053528;28;20037;-48
2022/02/22 00:56:59;;;;;;;24.77;4.25;;;5.50;99.90;;;;;;5055930;28;20041;-48
2022/02/22 00:59:24;;;;;;;21.77;3.80;;;5.50;99.90;;;;;;5064285;28;20041;-48
2022/02/22 01:01:50;;;;;;;19.27;3.90;;;5.50;99.90;;;;;;5069374;28;20301;-48
2022/02/22 01:04:16;;;;;;;31.17;4.53;;;5.50;99.90;;;;;;5061690;28;20526;-49
2022/02/22 01:06:41;;;;;;;19.40;4.28;;;5.40;99.90;;;;;;5060573;28;20032;-52
2022/02/22 01:09:07;;;;;;;19.55;3.85;;;5.40;99.90;;;;;;5073021;28;20123;-52
2022/02/22 01:11:34;;;;;;;18.70;3.70;;;5.30;99.90;;;;;;5038611;28;20037;-48
2022/02/22 01:14:00;;;;;;;22.88;4.07;;;5.30;99.90;;;;;;5053490;28;20040;-49
2022/02/22 01:16:26;;;;;;;23.02;4.10;;;5.30;99.90;;;;;;5054566;28;20032;-50
2022/02/22 01:18:51;;;;;;;26.80;4.78;;;5.20;99.90;;;;;;5036079;28;20037;-52
2022/02/22 01:21:17;;;;;;;31.33;4.93;;;5.20;99.90;;;;;;5052781;28;20478;-49
2022/02/22 01:23:42;;;;;;;34.47;5.15;;;5.20;99.90;;;;;;5052607;28;20064;-48
2022/02/22 01:26:08;;;;;;;30.83;5.47;;;5.10;99.90;;;;;;5052316;28;20043;-50
2022/02/22 01:28:34;;;;;;;38.28;6.20;;;5.10;99.90;;;;;;5066330;28;20501;-51
2022/02/22 01:30:59;;;;;;;38.42;5.63;;;5.00;99.90;;;;;;5054147;28;20594;-48
2022/02/22 01:33:25;;;;;;;37.30;5.60;;;5.00;99.90;;;;;;5052179;28;20186;-48
2022/02/22 01:35:50;;;;;;;30.10;5.95;;;5.00;99.90;;;;;;5052163;28;20508;-50
2022/02/22 01:38:16;;;;;;;42.08;5.28;;;5.10;99.90;;;;;;5037817;28;20397;-50
2022/02/22 01:40:42;;;;;;;41.42;5.13;;;5.00;99.90;;;;;;5058299;28;20489;-52
2022/02/22 01:43:07;;;;;;;44.63;7.15;;;5.00;99.90;;;;;;5058231;28;20041;-48
2022/02/22 01:45:34;;;;;;;39.60;6.82;;;5.00;99.90;;;;;;5060265;28;20044;-49
2022/02/22 01:48:01;;;;;;;28.85;4.85;;;5.00;99.90;;;;;;5061010;28;20413;-52
2022/02/22 01:50:26;;;;;;;31.70;5.57;;;5.10;99.90;;;;;;5051641;28;20055;-54
2022/02/22 01:52:52;;;;;;;36.92;6.82;;;5.00;99.90;;;;;;5068309;28;20037;-48
2022/02/22 01:55:19;;;;;;;37.20;4.95;;;5.10;99.90;;;;;;5071397;28;20036;-50
2022/02/22 01:57:45;;;;;;;35.33;5.63;;;5.10;99.90;;;;;;5061757;28;20032;-50
2022/02/22 02:00:12;;;;;;;32.33;5.10;;;5.10;99.90;;;;;;5069890;28;20036;-50
2022/02/22 02:02:38;;;;;;;35.20;4.82;;;5.10;99.90;;;;;;5059347;28;20044;-52
2022/02/22 02:05:05;;;;;;;33.22;5.25;;;5.00;99.90;;;;;;5068905;28;20051;-53
2022/02/22 02:07:30;;;;;;;34.95;5.57;;;5.00;99.90;;;;;;5071229;28;20048;-53
2022/02/22 02:09:56;;;;;;;34.08;5.07;;;5.00;99.90;;;;;;5071349;28;20040;-53
2022/02/22 02:12:22;;;;;;;33.38;5.07;;;4.90;99.90;;;;;;5057097;28;20037;-53
2022/02/22 02:14:47;;;;;;;34.15;6.45;;;4.90;99.90;;;;;;5067212;28;20043;-53
2022/02/22 02:17:13;;;;;;;34.50;5.20;;;4.90;99.90;;;;;;5069988;28;20032;-54
2022/02/22 02:19:42;;;;;;;32.67;5.03;;;4.80;99.90;;;;;;5071449;28;20116;-53
2022/02/22 02:22:08;;;;;;;35.15;4.60;;;4.80;99.90;;;;;;5053147;28;20079;-53
2022/02/22 02:24:33;;;;;;;34.40;6.13;;;4.70;99.90;;;;;;5057986;28;20072;-50
2022/02/22 02:26:59;;;;;;;30.05;5.13;;;4.70;99.90;;;;;;5063879;28;20519;-53
2022/02/22 02:29:27;;;;;;;41.65;7.03;;;4.70;99.90;;;;;;5065077;28;20090;-50
2022/02/22 02:31:55;;;;;;;38.63;5.63;;;4.70;99.90;;;;;;5053392;28;20037;-53
2022/02/22 02:34:24;;;;;;;33.15;5.00;;;4.70;99.90;;;;;;5051034;28;20037;-53
2022/02/22 02:36:50;;;;;;;36.90;5.43;;;4.70;99.90;;;;;;5054868;28;20037;-53
2022/02/22 02:39:15;;;;;;;52.00;6.28;;;4.70;99.90;;;;;;5050444;28;20477;-53
2022/02/22 02:41:44;;;;;;;39.88;6.10;;;4.70;99.90;;;;;;5051407;28;20044;-50
2022/02/22 02:44:16;;;;;;;30.65;5.40;;;4.60;99.90;;;;;;5049888;28;20045;-53
2022/02/22 02:46:42;;;;;;;34.90;5.28;;;4.60;99.90;;;;;;5050865;28;20079;-51
2022/02/22 02:49:09;;;;;;;33.22;5.22;;;4.70;99.90;;;;;;5051538;28;20393;-52
2022/02/22 02:51:35;;;;;;;28.08;4.72;;;4.70;99.90;;;;;;5056529;28;20090;-54
2022/02/22 02:54:01;;;;;;;26.55;4.32;;;4.80;99.90;;;;;;5061751;28;20039;-52
2022/02/22 02:56:27;;;;;;;29.42;3.88;;;4.80;99.90;;;;;;5055029;28;20103;-53
2022/02/22 02:58:58;;;;;;;21.85;3.90;;;4.70;99.90;;;;;;5055318;28;20068;-52
2022/02/22 03:01:25;;;;;;;24.60;4.15;;;4.70;99.90;;;;;;5066229;28;20043;-51
2022/02/22 03:03:50;;;;;;;23.10;3.63;;;4.70;99.90;;;;;;5075084;28;20454;-54
2022/02/22 03:06:17;;;;;;;23.95;4.05;;;4.70;99.90;;;;;;5063123;28;20037;-53
2022/02/22 03:08:42;;;;;;;21.58;3.20;;;4.70;99.90;;;;;;5053957;28;20037;-54
2022/02/22 03:11:09;;;;;;;15.93;2.83;;;4.70;99.90;;;;;;5056568;28;20083;-53
2022/02/22 03:13:35;;;;;;;19.67;3.35;;;4.60;99.90;;;;;;5074684;28;20119;-51
2022/02/22 03:16:01;;;;;;;18.33;3.80;;;4.60;99.90;;;;;;5074676;28;20404;-51
2022/02/22 03:18:26;;;;;;;17.15;2.95;;;4.60;99.90;;;;;;5074811;28;20029;-49
2022/02/22 03:20:52;;;;;;;18.52;2.83;;;4.60;99.90;;;;;;5070115;28;20052;-49
2022/02/22 03:23:19;;;;;;;24.52;3.15;;;4.50;99.90;;;;;;5054856;28;20032;-51
2022/02/22 03:25:45;;;;;;;14.35;2.83;;;4.50;99.90;;;;;;5054912;28;20047;-51
2022/02/22 03:28:11;;;;;;;18.80;2.97;;;4.60;99.90;;;;;;5055076;28;20110;-49
2022/02/22 03:30:38;;;;;;;18.60;2.85;;;4.60;99.90;;;;;;5061067;28;20497;-49
2022/02/22 03:33:04;;;;;;;12.88;2.53;;;4.60;99.90;;;;;;5074585;28;20083;-53
2022/02/22 03:35:30;;;;;;;18.30;2.30;;;4.50;99.90;;;;;;5074713;28;20117;-50
2022/02/22 03:37:56;;;;;;;17.88;2.58;;;4.50;99.90;;;;;;5058718;28;20505;-52
2022/02/22 03:40:22;;;;;;;13.25;2.63;;;4.50;99.90;;;;;;5060740;28;20139;-52
2022/02/22 03:42:48;;;;;;;13.77;2.70;;;4.40;99.90;;;;;;5044592;28;20041;-53
2022/02/22 03:45:15;;;;;;;21.48;2.60;;;4.40;99.90;;;;;;5055472;28;20052;-51
2022/02/22 03:47:42;;;;;;;14.73;3.35;;;4.40;99.90;;;;;;5061098;28;20072;-51
2022/02/22 03:50:11;;;;;;;18.05;2.90;;;4.40;99.90;;;;;;5060510;28;20040;-53
2022/02/22 03:52:37;;;;;;;17.17;2.67;;;4.30;99.90;;;;;;5054261;28;20067;-53
2022/02/22 03:55:04;;;;;;;17.33;3.13;;;4.30;99.90;;;;;;5054397;28;20044;-49
2022/02/22 03:57:30;;;;;;;18.30;2.78;;;4.30;99.90;;;;;;5058384;28;20052;-49
2022/02/22 03:59:55;;;;;;;15.38;2.55;;;4.30;99.90;;;;;;5064153;28;20044;-49
2022/02/22 04:02:21;;;;;;;16.50;2.58;;;4.30;99.90;;;;;;5060880;28;20033;-49
2022/02/22 04:04:47;;;;;;;13.93;2.78;;;4.20;99.90;;;;;;5053988;28;20456;-50
2022/02/22 04:07:12;;;;;;;15.43;2.42;;;4.20;99.90;;;;;;5057736;28;20032;-52
2022/02/22 04:09:38;;;;;;;20.92;3.22;;;4.20;99.90;;;;;;5074018;28;20055;-50
2022/02/22 04:12:04;;;;;;;19.17;2.85;;;4.10;99.90;;;;;;5073446;28;20115;-49
2022/02/22 04:14:29;;;;;;;20.02;3.38;;;4.10;99.90;;;;;;5073883;28;20139;-49
2022/02/22 04:16:55;;;;;;;24.95;3.25;;;4.10;99.90;;;;;;5058858;28;20100;-50
2022/02/22 04:19:20;;;;;;;23.20;3.63;;;4.10;99.90;;;;;;5057099;28;20075;-50
2022/02/22 04:21:46;;;;;;;21.85;3.55;;;4.10;99.90;;;;;;5055836;28;20075;-49
2022/02/22 04:24:12;;;;;;;25.48;4.05;;;4.20;99.90;;;;;;5058589;28;20491;-49
2022/02/22 04:26:37;;;;;;;26.95;4.35;;;4.20;99.90;;;;;;5053373;28;20544;-49
2022/02/22 04:29:03;;;;;;;27.33;4.20;;;4.20;99.90;;;;;;5053561;28;20128;-52
2022/02/22 04:31:33;;;;;;;28.90;4.75;;;4.20;99.90;;;;;;5053625;28;20083;-52
2022/02/22 04:33:59;;;;;;;30.50;3.97;;;4.20;99.90;;;;;;5053443;28;20045;-49
2022/02/22 04:36:25;;;;;;;22.90;3.58;;;4.30;99.90;;;;;;5056267;28;20143;-51
2022/02/22 04:38:50;;;;;;;23.90;4.03;;;4.30;99.90;;;;;;5060151;28;20116;-49
2022/02/22 04:41:16;;;;;;;32.22;4.90;;;4.30;99.90;;;;;;5065359;28;20504;-50
2022/02/22 04:43:42;;;;;;;27.35;4.15;;;4.30;99.90;;;;;;5053664;28;20405;-49
2022/02/22 04:46:07;;;;;;;29.63;4.15;;;4.30;99.90;;;;;;5053582;28;20477;-50
2022/02/22 04:48:33;;;;;;;25.38;4.30;;;4.30;99.90;;;;;;5061070;28;20055;-49
2022/02/22 04:50:58;;;;;;;26.08;4.47;;;4.30;99.90;;;;;;5063096;28;20063;-49
2022/02/22 04:53:24;;;;;;;25.90;4.63;;;4.30;99.90;;;;;;5068437;28;20040;-50
2022/02/22 04:55:50;;;;;;;29.35;4.20;;;4.30;99.90;;;;;;5051913;28;20126;-49
2022/02/22 04:58:16;;;;;;;41.85;5.30;;;4.30;99.90;;;;;;5043278;28;20028;-52
2022/02/22 05:00:41;;;;;;;31.02;4.82;;;4.30;99.90;;;;;;5064162;28;20025;-50
2022/02/22 05:03:07;;;;;;;37.92;5.15;;;4.40;99.90;;;;;;5053691;28;20142;-49
2022/02/22 05:05:32;;;;;;;36.65;5.90;;;4.40;99.90;;;;;;5071967;28;20094;-49
2022/02/22 05:07:58;;;;;;;27.50;4.85;;;4.40;99.90;;;;;;5071870;28;20041;-52
2022/02/22 05:10:23;;;;;;;25.48;4.45;;;4.40;99.90;;;;;;5055470;28;20053;-50
2022/02/22 05:12:49;;;;;;;29.05;4.55;;;4.40;99.90;;;;;;5059637;28;20036;-50
2022/02/22 05:15:14;;;;;;;29.30;5.10;;;4.40;99.90;;;;;;5055101;28;20041;-50
2022/02/22 05:17:40;;;;;;;38.70;5.20;;;4.40;99.90;;;;;;5059453;28;20036;-49
2022/02/22 05:20:07;;;;;;;27.63;4.05;;;4.40;99.90;;;;;;5066260;28;20037;-51
2022/02/22 05:22:44;;;;;;;36.40;4.80;;;4.40;99.90;;;;;;5059458;28;20370;-50
2022/02/22 05:25:11;;;;;;;32.78;4.68;;;4.40;99.90;;;;;;5063734;28;20576;-49
2022/02/22 05:27:37;;;;;;;30.75;5.25;;;4.40;99.90;;;;;;5069350;28;20098;-50
2022/02/22 05:30:08;;;;;;;36.85;5.28;;;4.40;99.90;;;;;;5061193;28;20033;-51
2022/02/22 05:32:34;;;;;;;33.28;4.25;;;4.40;99.90;;;;;;5057787;28;20037;-50
2022/02/22 05:35:00;;;;;;;28.00;4.22;;;4.40;99.90;;;;;;5068134;28;20032;-52
2022/02/22 05:37:27;;;;;;;34.90;4.93;;;4.40;99.90;;;;;;5055699;28;20098;-50
2022/02/22 05:39:54;;;;;;;27.42;4.00;;;4.40;99.90;;;;;;5034547;28;20398;-50
2022/02/22 05:42:21;;;;;;;27.55;4.38;;;4.40;99.90;;;;;;5051149;28;20036;-49
2022/02/22 05:44:47;;;;;;;30.08;4.20;;;4.40;99.90;;;;;;5052716;28;20037;-49
2022/02/22 05:47:12;;;;;;;33.58;5.25;;;4.40;99.90;;;;;;5051887;28;20094;-50
2022/02/22 05:49:38;;;;;;;31.50;5.05;;;4.30;99.90;;;;;;5052090;28;20033;-49
2022/02/22 05:52:04;;;;;;;28.92;5.28;;;4.30;99.90;;;;;;5059916;28;20045;-52
2022/02/22 05:54:29;;;;;;;33.50;5.82;;;4.30;99.90;;;;;;5055871;28;20072;-50
2022/02/22 05:56:54;;;;;;;32.58;5.05;;;4.30;99.90;;;;;;5056852;28;20047;-50
2022/02/22 05:59:20;;;;;;;38.33;4.93;;;4.30;99.90;;;;;;5063122;28;20068;-50
2022/02/22 06:01:46;;;;;;;36.90;4.95;;;4.30;99.90;;;;;;5055360;28;20418;-52
2022/02/22 06:04:11;;;;;;;29.67;4.65;;;4.30;99.90;;;;;;5051619;28;20044;-49
2022/02/22 06:06:38;;;;;;;33.88;5.03;;;4.30;99.90;;;;;;5060968;28;20032;-51
2022/02/22 06:09:04;;;;;;;32.92;5.00;;;4.30;99.90;;;;;;5056301;28;20113;-50
2022/02/22 06:11:30;;;;;;;30.92;4.95;;;4.30;99.90;;;;;;5051731;28;20477;-49
2022/02/22 06:13:55;;;;;;;35.83;4.55;;;4.20;99.90;;;;;;5051545;28;20033;-49
2022/02/22 06:16:21;;;;;;;36.70;5.35;;;4.20;99.90;;;;;;5063172;28;20035;-49
2022/02/22 06:18:46;;;;;;;32.03;3.92;;;4.20;99.90;;;;;;5044411;28;20036;-50
2022/02/22 06:21:12;;;;;;;31.63;4.57;;;4.20;99.90;;;;;;5050030;28;20045;-49
2022/02/22 06:23:37;;;;;;;31.23;4.63;;;4.20;99.90;;;;;;5051569;28;20442;-49
2022/02/22 06:26:03;;;;;;;34.70;4.55;;;4.10;99.90;;;;;;5051707;28;20049;-50
2022/02/22 06:28:28;;;;;;;30.40;4.43;;;4.10;99.90;;;;;;5052532;28;20396;-52
2022/02/22 06:30:54;;;;;;;35.25;4.40;;;4.10;99.90;;;;;;5057003;28;20037;-51
2022/02/22 06:33:20;;;;;;;31.27;4.95;;;4.00;99.90;;;;;;5062278;28;20566;-49
2022/02/22 06:35:45;;;;;;;36.75;5.30;;;4.00;99.90;;;;;;5063141;28;20033;-49
2022/02/22 06:38:11;;;;;;;29.08;4.50;;;4.00;99.90;;;;;;5062429;28;20086;-50
2022/02/22 06:40:37;;;;;;;22.23;4.60;;;4.00;99.90;;;;;;5055399;28;20040;-49
2022/02/22 06:43:03;;;;;;;29.70;4.38;;;4.00;99.90;;;;;;5056629;28;20116;-49
2022/02/22 06:45:28;;;;;;;41.35;5.03;;;3.90;99.90;;;;;;5054422;28;20117;-50
2022/02/22 06:47:54;;;;;;;39.45;5.13;;;3.90;99.90;;;;;;5066552;28;20033;-49
2022/02/22 06:50:20;;;;;;;26.90;4.80;;;3.90;99.90;;;;;;5068955;28;20105;-50
2022/02/22 06:52:46;;;;;;;35.97;4.88;;;3.90;99.90;;;;;;5058233;28;20040;-49
2022/02/22 06:55:13;;;;;;;37.55;5.75;;;3.90;99.90;;;;;;5063453;28;20108;-53
2022/02/22 06:57:40;;;;;;;34.47;6.10;;;3.90;99.90;;;;;;5055190;28;20438;-51
2022/02/22 07:00:09;;;;;;;27.38;4.68;;;3.90;99.90;;;;;;5050865;28;20033;-54
2022/02/22 07:02:39;;;;;;;26.85;3.90;;;3.90;99.90;;;;;;5050490;28;20163;-51
2022/02/22 07:05:06;;;;;;;33.58;5.65;;;3.90;99.90;;;;;;5051422;28;20029;-53
2022/02/22 07:07:32;;;;;;;25.05;5.32;;;3.90;99.90;;;;;;5051786;28;20501;-54
2022/02/22 07:09:57;;;;;;;31.50;4.45;;;3.90;99.90;;;;;;5051616;28;20029;-54
2022/02/22 07:12:23;;;;;;;30.65;4.68;;;3.90;99.90;;;;;;5049262;28;20041;-53
2022/02/22 07:14:48;;;;;;;30.75;4.25;;;3.90;99.90;;;;;;5052268;28;20036;-53
2022/02/22 07:17:14;;;;;;;35.65;4.80;;;4.00;99.90;;;;;;5049460;28;20056;-54
2022/02/22 07:19:40;;;;;;;41.70;5.32;;;4.00;99.90;;;;;;5050826;28;20477;-53
2022/02/22 07:22:05;;;;;;;42.03;6.07;;;4.00;99.90;;;;;;5050964;28;20033;-49
2022/02/22 07:24:31;;;;;;;36.85;5.93;;;4.00;99.90;;;;;;5052425;28;20040;-53
2022/02/22 07:26:57;;;;;;;34.72;6.20;;;4.00;99.90;;;;;;5050942;28;20033;-53
2022/02/22 07:29:22;;;;;;;43.67;5.57;;;4.00;99.90;;;;;;5062880;28;20033;-53
2022/02/22 07:31:48;;;;;;;34.90;4.75;;;4.10;99.90;;;;;;5057529;28;20068;-50
2022/02/22 07:34:14;;;;;;;35.42;5.13;;;4.10;99.90;;;;;;5061266;28;20111;-50
2022/02/22 07:36:40;;;;;;;38.45;5.05;;;4.10;99.90;;;;;;5061227;28;20044;-50
2022/02/22 07:39:05;;;;;;;29.20;4.57;;;4.20;99.90;;;;;;5054385;28;20494;-54
2022/02/22 07:41:31;;;;;;;28.58;4.95;;;4.20;99.90;;;;;;5058088;28;20083;-50
2022/02/22 07:43:57;;;;;;;28.05;4.20;;;4.20;99.90;;;;;;5038077;28;20127;-50
2022/02/22 07:46:23;;;;;;;31.27;5.25;;;4.30;99.90;;;;;;5052577;28;20037;-50
2022/02/22 07:48:49;;;;;;;31.83;5.10;;;4.30;99.90;;;;;;5053823;28;20041;-52
2022/02/22 07:51:16;;;;;;;28.08;5.15;;;4.40;99.90;;;;;;5063157;28;20409;-50
2022/02/22 07:53:46;;;;;;;34.58;4.88;;;4.40;99.90;;;;;;5059812;28;20037;-51
2022/02/22 07:56:12;;;;;;;33.55;4.72;;;4.50;99.90;;;;;;5054006;28;20120;-50
2022/02/22 07:58:38;;;;;;;31.92;4.38;;;4.50;99.90;;;;;;5054499;28;20037;-50
2022/02/22 08:01:05;;;;;;;38.30;5.05;;;4.60;99.90;;;;;;5054178;28;20162;-53
2022/02/22 08:03:31;;;;;;;29.38;4.25;;;4.60;99.90;;;;;;5056229;28;20131;-50
2022/02/22 08:05:56;;;;;;;31.13;4.72;;;4.60;99.90;;;;;;5074306;28;20136;-50
2022/02/22 08:08:22;;;;;;;34.65;6.00;;;4.70;99.90;;;;;;5074123;28;20408;-51
2022/02/22 08:10:48;;;;;;;31.23;3.97;;;4.80;99.90;;;;;;5073999;28;20454;-51
2022/02/22 08:13:14;;;;;;;35.92;4.72;;;4.90;99.90;;;;;;5056331;28;20078;-50
2022/02/22 08:15:39;;;;;;;29.83;5.38;;;5.00;99.90;;;;;;5073268;28;20091;-52
2022/02/22 08:18:05;;;;;;;29.67;5.18;;;5.10;99.90;;;;;;5073671;28;20044;-49
2022/02/22 08:20:31;;;;;;;27.75;4.63;;;5.20;99.90;;;;;;5074119;28;20033;-49
2022/02/22 08:22:56;;;;;;;35.70;5.18;;;5.20;99.90;;;;;;5073953;28;20041;-50
2022/02/22 08:25:22;;;;;;;35.00;4.20;;;5.20;99.90;;;;;;5056550;28;20041;-50
2022/02/22 08:27:47;;;;;;;37.72;4.70;;;5.20;99.90;;;;;;5053672;28;20033;-50
2022/02/22 08:30:13;;;;;;;33.40;4.47;;;5.30;99.90;;;;;;5058545;28;20039;-50
2022/02/22 08:32:40;;;;;;;35.28;4.93;;;5.30;99.90;;;;;;5043897;28;20041;-50
2022/02/22 08:35:06;;;;;;;33.72;4.78;;;5.40;99.90;;;;;;5067758;28;20073;-50
2022/02/22 08:37:32;;;;;;;25.85;3.67;;;5.40;99.90;;;;;;5061619;28;20516;-50
2022/02/22 08:39:58;;;;;;;24.08;4.40;;;5.50;99.90;;;;;;5070293;28;20044;-50
2022/02/22 08:42:23;;;;;;;30.38;4.15;;;5.50;99.90;;;;;;5073553;28;20036;-50
2022/02/22 08:44:49;;;;;;;30.40;4.57;;;5.60;99.90;;;;;;5054437;28;20497;-50
2022/02/22 08:47:14;;;;;;;29.48;5.13;;;5.70;99.90;;;;;;5073182;28;20059;-52
2022/02/22 08:49:42;;;;;;;26.50;4.70;;;5.80;99.90;;;;;;5073354;28;20439;-50
2022/02/22 08:52:07;;;;;;;27.20;4.60;;;5.90;99.90;;;;;;5061701;28;20071;-50
2022/02/22 08:54:33;;;;;;;22.48;4.30;;;5.90;99.90;;;;;;5068287;28;20060;-53
2022/02/22 08:56:58;;;;;;;35.90;6.28;;;5.90;99.90;;;;;;5073040;28;20064;-50
2022/02/22 08:59:24;;;;;;;28.77;6.20;;;5.90;99.90;;;;;;5072171;28;20040;-50
2022/02/22 09:01:49;;;;;;;31.65;6.35;;;6.00;99.90;;;;;;5073477;28;20405;-50
2022/02/22 09:04:15;;;;;;;36.58;7.15;;;6.00;99.90;;;;;;5072391;28;20043;-50
2022/02/22 09:06:40;;;;;;;34.35;7.07;;;6.00;99.90;;;;;;5073081;28;20120;-50
2022/02/22 09:09:06;;;;;;;36.22;6.65;;;6.00;99.90;;;;;;5062340;28;20516;-53
2022/02/22 09:11:31;;;;;;;25.88;5.90;;;6.10;99.90;;;;;;5052912;28;20044;-52
2022/02/22 09:13:57;;;;;;;25.30;5.85;;;6.10;99.90;;;;;;5063227;28;20044;-52
2022/02/22 09:16:23;;;;;;;27.52;6.05;;;6.20;99.90;;;;;;5072728;28;20036;-53
2022/02/22 09:18:49;;;;;;;26.45;6.82;;;6.20;99.90;;;;;;5072989;28;20033;-53
2022/02/22 09:21:14;;;;;;;29.73;7.07;;;6.20;99.90;;;;;;5065735;28;20040;-50
2022/02/22 09:23:40;;;;;;;26.95;6.13;;;6.20;99.90;;;;;;5065164;28;20045;-53
2022/02/22 09:26:06;;;;;;;28.90;6.10;;;6.30;99.90;;;;;;5064337;28;20132;-53
2022/02/22 09:28:31;;;;;;;31.73;6.30;;;6.30;99.90;;;;;;5064142;28;20109;-51
2022/02/22 09:30:57;;;;;;;30.67;7.13;;;6.40;99.90;;;;;;5072228;28;20045;-54
2022/02/22 09:33:23;;;;;;;37.05;7.00;;;6.40;99.90;;;;;;5071540;28;20493;-51
2022/02/22 09:35:51;;;;;;;33.38;6.95;;;6.50;99.90;;;;;;5072345;28;20039;-53
2022/02/22 09:38:17;;;;;;;30.15;6.95;;;6.50;99.90;;;;;;5072223;28;20036;-53
2022/02/22 09:40:43;;;;;;;31.30;7.43;;;6.50;99.90;;;;;;5072193;28;20127;-54
2022/02/22 09:43:08;;;;;;;30.35;5.90;;;6.60;99.90;;;;;;5071313;28;20072;-52
2022/02/22 09:45:34;;;;;;;25.95;6.85;;;6.70;99.90;;;;;;5072127;28;20037;-50
2022/02/22 09:48:04;;;;;;;37.38;6.78;;;6.70;99.90;;;;;;5054321;28;20052;-51
2022/02/22 09:50:32;;;;;;;31.77;6.70;;;6.70;99.90;;;;;;5072061;28;20127;-51
2022/02/22 09:52:58;;;;;;;28.27;6.28;;;6.70;99.90;;;;;;5071294;28;20549;-54
2022/02/22 09:55:24;;;;;;;29.75;6.75;;;6.80;99.90;;;;;;5072172;28;20130;-53
2022/02/22 09:57:53;;;;;;;32.65;6.72;;;6.80;99.90;;;;;;5071523;28;20044;-54
2022/02/22 10:00:22;;;;;;;31.67;7.00;;;6.80;99.90;;;;;;5070688;28;20029;-54
2022/02/22 10:02:48;;;;;;;34.75;7.07;;;6.80;99.90;;;;;;5071584;28;20048;-54
2022/02/22 10:05:20;;;;;;;30.88;6.55;;;6.90;99.90;;;;;;5052140;28;20126;-50
2022/02/22 10:07:54;;;;;;;27.43;6.63;;;6.90;99.90;;;;;;5033784;28;20040;-50
2022/02/22 10:10:31;;;;;;;33.33;6.63;;;7.00;99.90;;;;;;5051602;28;20068;-52
2022/02/22 10:12:57;;;;;;;28.42;6.22;;;7.10;99.90;;;;;;5051688;28;20163;-50
2022/02/22 10:15:23;;;;;;;34.42;7.30;;;7.10;99.90;;;;;;5054323;28;20123;-50
2022/02/22 10:17:51;;;;;;;31.95;7.78;;;7.20;99.90;;;;;;5054046;28;20515;-50
2022/02/22 10:20:17;;;;;;;26.40;6.32;;;7.20;99.90;;;;;;5068863;28;20036;-50
2022/02/22 10:22:48;;;;;;;29.00;5.75;;;7.30;99.90;;;;;;5051562;28;20044;-50
2022/02/22 10:25:14;;;;;;;27.83;5.88;;;7.30;99.90;;;;;;5051848;28;20379;-50
2022/02/22 10:27:49;;;;;;;27.45;6.10;;;7.30;99.90;;;;;;5051715;28;20044;-53
2022/02/22 10:30:39;;;;;;;29.13;6.43;;;7.40;99.90;;;;;;5050377;28;20115;-50
2022/02/22 10:33:12;;;;;;;26.70;5.13;;;7.50;99.90;;;;;;5051672;28;20048;-50
2022/02/22 10:35:39;;;;;;;30.52;6.18;;;7.50;99.90;;;;;;5051488;28;20227;-50
2022/02/22 10:38:35;;;;;;;28.10;6.28;;;7.50;99.90;;;;;;5051510;28;20041;-51
2022/02/22 10:41:13;;;;;;;29.08;6.22;;;7.60;99.90;;;;;;5041938;28;20044;-50
2022/02/22 10:43:40;;;;;;;29.63;6.55;;;7.60;99.90;;;;;;5071244;28;20041;-50
2022/02/22 10:46:08;;;;;;;34.03;7.38;;;7.60;99.90;;;;;;5071395;28;20036;-50
2022/02/22 10:48:42;;;;;;;25.40;6.03;;;7.60;99.90;;;;;;5071672;28;20048;-50
2022/02/22 10:51:17;;;;;;;34.03;6.13;;;7.60;99.90;;;;;;5064444;28;20033;-50
2022/02/22 10:53:45;;;;;;;33.55;6.25;;;7.60;99.90;;;;;;5033374;28;20041;-53
2022/02/22 10:56:15;;;;;;;28.55;6.70;;;7.60;99.90;;;;;;5050890;28;20040;-50
2022/02/22 10:58:45;;;;;;;32.58;6.82;;;7.60;99.90;;;;;;5051370;28;20041;-51
2022/02/22 11:01:16;;;;;;;30.23;5.88;;;7.60;99.90;;;;;;5071429;28;20143;-50
2022/02/22 11:03:42;;;;;;;28.70;6.53;;;7.60;99.90;;;;;;5071285;28;20450;-50
2022/02/22 11:06:10;;;;;;;29.55;6.35;;;7.50;99.90;;;;;;5071128;28;20044;-50
2022/02/22 11:08:39;;;;;;;35.40;7.03;;;7.50;99.90;;;;;;5061740;28;20037;-52
2022/02/22 11:11:08;;;;;;;28.30;6.35;;;7.50;99.90;;;;;;5052559;28;20524;-50
2022/02/22 11:13:34;;;;;;;29.10;6.60;;;7.50;99.90;;;;;;5057693;28;20488;-50
2022/02/22 11:16:08;;;;;;;26.55;5.22;;;7.50;99.90;;;;;;5051416;28;20044;-50
2022/02/22 11:18:52;;;;;;;33.30;6.40;;;7.60;99.90;;;;;;5058199;28;20032;-51
2022/02/22 11:21:21;;;;;;;25.98;5.47;;;7.70;99.90;;;;;;5061773;28;20109;-50
2022/02/22 11:23:47;;;;;;;29.38;6.53;;;7.70;99.90;;;;;;5058455;28;20438;-53
2022/02/22 11:26:20;;;;;;;31.23;5.57;;;7.70;99.90;;;;;;5064069;28;20131;-50
2022/02/22 11:28:57;;;;;;;29.40;5.28;;;7.70;99.90;;;;;;5056620;28;20106;-52
2022/02/22 11:31:30;;;;;;;34.88;6.03;;;7.70;99.90;;;;;;5066634;28;20037;-50
2022/02/22 11:34:00;;;;;;;29.13;6.32;;;7.70;99.90;;;;;;5055469;28;20067;-51
2022/02/22 11:36:29;;;;;;;35.13;7.75;;;7.60;99.90;;;;;;5057051;28;20087;-51
2022/02/22 11:38:55;;;;;;;24.58;5.80;;;7.60;99.90;;;;;;5054779;28;20056;-53
2022/02/22 11:41:24;;;;;;;32.25;6.00;;;7.50;99.90;;;;;;5057483;28;20416;-54
2022/02/22 11:44:04;;;;;;;29.98;5.82;;;7.50;99.90;;;;;;5056103;28;20045;-53
2022/02/22 11:46:35;;;;;;;34.83;6.20;;;7.50;99.90;;;;;;5054115;28;20049;-54
2022/02/22 11:49:02;;;;;;;29.45;6.20;;;7.50;99.90;;;;;;5058557;28;20090;-54
2022/02/22 11:51:42;;;;;;;26.63;6.03;;;7.50;99.90;;;;;;5055217;28;20114;-52
2022/02/22 11:54:12;;;;;;;31.33;6.82;;;7.50;99.90;;;;;;5055405;28;20032;-51
2022/02/22 11:56:39;;;;;;;33.13;6.90;;;7.50;99.90;;;;;;5058047;28;20443;-53
2022/02/22 11:59:15;;;;;;;33.75;6.88;;;7.40;99.90;;;;;;5062382;28;20032;-50
2022/02/22 12:01:46;;;;;;;34.17;7.43;;;7.40;99.90;;;;;;5059276;28;20052;-55
2022/02/22 12:04:43;;;;;;;31.52;7.40;;;7.40;99.90;;;;;;5059268;28;20404;-52
2022/02/22 12:07:08;;;;;;;33.40;7.40;;;7.30;99.90;;;;;;5058355;28;20052;-53
2022/02/22 12:09:41;;;;;;;25.02;7.57;;;7.40;99.90;;;;;;5054333;28;20563;-52
2022/02/22 12:12:10;;;;;;;29.92;7.25;;;7.40;99.90;;;;;;5060470;28;20049;-53
2022/02/22 12:14:37;;;;;;;40.13;7.82;;;7.40;99.90;;;;;;5056849;28;20448;-53
2022/02/22 12:17:13;;;;;;;36.70;8.80;;;7.40;99.90;;;;;;5056172;28;20044;-53
2022/02/22 12:19:40;;;;;;;34.58;7.35;;;7.40;99.90;;;;;;5056679;28;20032;-52
2022/02/22 12:22:06;;;;;;;30.27;7.43;;;7.50;99.90;;;;;;5052697;28;20037;-53
2022/02/22 12:24:32;;;;;;;24.30;6.82;;;7.50;99.90;;;;;;5058223;28;20033;-51
2022/02/22 12:27:08;;;;;;;31.60;8.20;;;7.60;99.90;;;;;;5052345;28;20493;-52
2022/02/22 12:29:34;;;;;;;27.63;8.00;;;7.60;99.90;;;;;;5054195;28;20041;-52
2022/02/22 12:32:01;;;;;;;24.25;6.60;;;7.60;99.90;;;;;;5054443;28;20052;-54
2022/02/22 12:34:28;;;;;;;29.25;6.90;;;7.70;99.90;;;;;;5061264;28;20058;-50
2022/02/22 12:36:58;;;;;;;27.17;7.35;;;7.70;99.90;;;;;;5065658;28;20076;-50
2022/02/22 12:39:27;;;;;;;28.27;8.98;;;7.80;99.90;;;;;;5058810;28;20120;-53
2022/02/22 12:41:55;;;;;;;26.13;8.10;;;7.80;99.90;;;;;;5056714;28;20056;-53
2022/02/22 12:44:22;;;;;;;21.30;7.38;;;7.80;99.90;;;;;;5055007;28;20041;-50
2022/02/22 12:46:50;;;;;;;32.65;8.63;;;7.90;99.90;;;;;;5055074;28;20045;-51